Time;durP1;ratioP1;P1;durP2;ratioP2;P2;SDS_P1;SDS_P2;PMS_P1;PMS_P2;Temp;Humidity;BMP_temperature;BMP_pressure;BME280_temperature;BME280_humidity;BME280_pressure;Samples;Min_cycle;Max_cycle;Signal;HPM_P1;HPM_P2
2024/01/17 00:01:58;;;;;;;11.18;8.65;;;-1.20;99.90;;;;;;5073206;28;20479;-65
2024/01/17 00:04:24;;;;;;;12.20;9.40;;;-1.20;99.90;;;;;;5071828;28;20404;-65
2024/01/17 00:06:50;;;;;;;15.45;9.00;;;-1.20;99.90;;;;;;5072302;28;20418;-65
2024/01/17 00:09:15;;;;;;;13.10;8.90;;;-1.20;99.90;;;;;;5074172;28;20417;-65
2024/01/17 00:11:44;;;;;;;14.15;9.68;;;-1.20;99.90;;;;;;5075050;28;20404;-65
2024/01/17 00:14:11;;;;;;;15.02;9.93;;;-1.20;99.90;;;;;;5071342;28;20395;-65
2024/01/17 00:16:37;;;;;;;13.83;10.30;;;-1.20;99.90;;;;;;5064511;28;20495;-65
2024/01/17 00:19:03;;;;;;;16.40;10.02;;;-1.20;99.90;;;;;;5074164;28;20407;-65
2024/01/17 00:21:28;;;;;;;14.27;10.77;;;-1.20;99.90;;;;;;5074243;28;20486;-65
2024/01/17 00:23:54;;;;;;;13.80;10.07;;;-1.20;99.90;;;;;;5072683;28;20995;-65
2024/01/17 00:26:20;;;;;;;16.40;10.80;;;-1.20;99.90;;;;;;5075091;28;20500;-65
2024/01/17 00:28:46;;;;;;;15.37;11.30;;;-1.20;99.90;;;;;;5053415;28;20966;-65
2024/01/17 00:31:12;;;;;;;15.87;11.07;;;-1.20;99.90;;;;;;5072389;28;20420;-65
2024/01/17 00:33:37;;;;;;;16.10;10.90;;;-1.20;99.90;;;;;;5071068;28;20741;-65
2024/01/17 00:36:04;;;;;;;17.40;11.70;;;-1.20;99.90;;;;;;5072936;28;20429;-65
2024/01/17 00:38:31;;;;;;;16.60;11.80;;;-1.20;99.90;;;;;;5077752;28;20479;-65
2024/01/17 00:40:57;;;;;;;14.52;11.60;;;-1.20;99.90;;;;;;5075070;28;21844;-65
2024/01/17 00:43:23;;;;;;;17.05;11.27;;;-1.20;99.90;;;;;;5069204;28;20972;-65
2024/01/17 00:45:49;;;;;;;17.27;12.20;;;-1.20;99.90;;;;;;5067351;28;20439;-65
2024/01/17 00:48:15;;;;;;;17.30;12.60;;;-1.20;99.90;;;;;;5080471;28;20845;-65
2024/01/17 00:50:41;;;;;;;18.90;12.55;;;-1.20;99.90;;;;;;5070200;28;20469;-65
2024/01/17 00:53:09;;;;;;;16.60;12.40;;;-1.30;99.90;;;;;;5072702;28;20439;-65
2024/01/17 00:55:35;;;;;;;16.53;12.17;;;-1.30;99.90;;;;;;5073355;28;20470;-65
2024/01/17 00:58:01;;;;;;;17.50;13.10;;;-1.20;99.90;;;;;;5076577;28;20395;-65
2024/01/17 01:00:26;;;;;;;15.95;11.88;;;-1.20;99.90;;;;;;5054744;28;20431;-65
2024/01/17 01:02:52;;;;;;;16.83;12.57;;;-1.20;99.90;;;;;;5070827;28;20424;-65
2024/01/17 01:05:18;;;;;;;17.77;12.45;;;-1.20;99.90;;;;;;5074795;28;20504;-65
2024/01/17 01:07:47;;;;;;;17.77;13.20;;;-1.20;99.90;;;;;;5073663;28;20888;-65
2024/01/17 01:10:13;;;;;;;17.50;12.88;;;-1.10;99.90;;;;;;5059142;28;20410;-65
2024/01/17 01:12:39;;;;;;;17.50;12.43;;;-1.10;99.90;;;;;;5076629;28;20401;-65
2024/01/17 01:15:05;;;;;;;18.33;12.63;;;-1.10;99.90;;;;;;5068757;28;20776;-65
2024/01/17 01:17:31;;;;;;;18.33;13.10;;;-1.10;99.90;;;;;;5075505;28;20937;-65
2024/01/17 01:19:57;;;;;;;17.50;12.77;;;-1.20;99.90;;;;;;5073478;28;20392;-65
2024/01/17 01:22:23;;;;;;;16.88;13.30;;;-1.30;99.90;;;;;;5069427;28;20481;-65
2024/01/17 01:24:49;;;;;;;16.57;12.73;;;-1.20;99.90;;;;;;5077544;28;20390;-65
2024/01/17 01:27:15;;;;;;;16.90;13.68;;;-1.30;99.90;;;;;;5075371;28;20935;-65
2024/01/17 01:29:41;;;;;;;19.63;14.10;;;-1.30;99.90;;;;;;5076092;28;20394;-65
2024/01/17 01:32:07;;;;;;;18.60;13.57;;;-1.30;99.90;;;;;;5069662;28;20499;-65
2024/01/17 01:34:33;;;;;;;18.88;13.65;;;-1.30;99.90;;;;;;5072305;28;20431;-65
2024/01/17 01:37:02;;;;;;;18.40;14.50;;;-1.40;99.90;;;;;;5080887;28;20428;-65
2024/01/17 01:39:28;;;;;;;20.00;14.70;;;-1.40;99.90;;;;;;5077737;28;20461;-65
2024/01/17 01:41:54;;;;;;;19.33;14.77;;;-1.40;99.90;;;;;;5083585;28;20390;-65
2024/01/17 01:44:20;;;;;;;20.50;15.98;;;-1.40;99.90;;;;;;5084358;28;20772;-65
2024/01/17 01:46:48;;;;;;;18.80;15.13;;;-1.40;99.90;;;;;;5072913;28;20413;-65
2024/01/17 01:49:15;;;;;;;20.13;15.32;;;-1.50;99.90;;;;;;5077501;28;20466;-65
2024/01/17 01:51:44;;;;;;;22.33;15.50;;;-1.40;99.90;;;;;;5067881;28;20910;-65
2024/01/17 01:54:13;;;;;;;20.45;15.55;;;-1.40;99.90;;;;;;5073119;28;20502;-65
2024/01/17 01:56:40;;;;;;;20.20;15.37;;;-1.40;99.90;;;;;;5084590;28;20931;-65
2024/01/17 01:59:07;;;;;;;19.80;14.80;;;-1.40;99.90;;;;;;5074856;28;20426;-65
2024/01/17 02:01:33;;;;;;;21.35;15.63;;;-1.40;99.90;;;;;;5085144;28;20398;-65
2024/01/17 02:04:01;;;;;;;19.95;15.93;;;-1.30;99.90;;;;;;5078421;28;20780;-65
2024/01/17 02:06:33;;;;;;;20.38;15.77;;;-1.30;99.90;;;;;;5083255;28;20451;-65
2024/01/17 02:09:00;;;;;;;18.88;15.23;;;-1.30;99.90;;;;;;5076246;28;20816;-65
2024/01/17 02:11:31;;;;;;;19.55;15.45;;;-1.30;99.90;;;;;;5082884;28;20411;-65
2024/01/17 02:13:58;;;;;;;19.95;15.70;;;-1.30;99.90;;;;;;5077896;28;20397;-65
2024/01/17 02:16:24;;;;;;;19.77;15.48;;;-1.20;99.90;;;;;;5079907;28;20831;-65
2024/01/17 02:18:50;;;;;;;21.48;16.60;;;-1.30;99.90;;;;;;5084147;28;20399;-65
2024/01/17 02:21:16;;;;;;;20.67;16.55;;;-1.30;99.90;;;;;;5082059;28;20425;-66
2024/01/17 02:23:42;;;;;;;21.05;16.45;;;-1.30;99.90;;;;;;5072998;28;20431;-65
2024/01/17 02:26:08;;;;;;;19.63;15.88;;;-1.30;99.90;;;;;;5081568;28;20461;-65
2024/01/17 02:28:35;;;;;;;22.42;16.55;;;-1.30;99.90;;;;;;5081861;28;20395;-65
2024/01/17 02:31:01;;;;;;;22.13;15.93;;;-1.40;99.90;;;;;;5078539;28;20486;-65
2024/01/17 02:33:27;;;;;;;22.58;15.57;;;-1.40;99.90;;;;;;5055308;28;20460;-65
2024/01/17 02:35:53;;;;;;;19.10;15.75;;;-1.40;99.90;;;;;;5078656;28;20452;-65
2024/01/17 02:38:19;;;;;;;21.52;16.13;;;-1.40;99.90;;;;;;5080876;28;20936;-66
2024/01/17 02:40:45;;;;;;;21.27;16.20;;;-1.40;99.90;;;;;;5082323;28;20925;-65
2024/01/17 02:43:11;;;;;;;20.35;16.40;;;-1.50;99.90;;;;;;5078613;28;20429;-65
2024/01/17 02:45:37;;;;;;;20.17;15.77;;;-1.40;99.90;;;;;;5072875;28;20412;-65
2024/01/17 02:48:03;;;;;;;19.80;15.23;;;-1.40;99.90;;;;;;5076584;28;20449;-65
2024/01/17 02:50:29;;;;;;;20.37;15.80;;;-1.40;99.90;;;;;;5074047;28;20403;-65
2024/01/17 02:52:55;;;;;;;22.23;16.02;;;-1.40;99.90;;;;;;5064109;28;20402;-65
2024/01/17 02:55:23;;;;;;;19.45;15.27;;;-1.40;99.90;;;;;;5075084;28;20486;-66
2024/01/17 02:57:50;;;;;;;18.08;15.25;;;-1.40;99.90;;;;;;5069039;28;20478;-66
2024/01/17 03:00:17;;;;;;;19.30;15.02;;;-1.40;99.90;;;;;;5071923;28;20442;-65
2024/01/17 03:02:43;;;;;;;18.80;15.18;;;-1.40;99.90;;;;;;5065990;28;20762;-65
2024/01/17 03:05:09;;;;;;;17.25;15.00;;;-1.40;99.90;;;;;;5071321;28;20404;-65
2024/01/17 03:07:34;;;;;;;17.27;14.77;;;-1.40;99.90;;;;;;5078509;28;20404;-66
2024/01/17 03:10:00;;;;;;;18.40;14.73;;;-1.40;99.90;;;;;;5082497;28;20400;-66
2024/01/17 03:12:26;;;;;;;17.77;13.85;;;-1.50;99.90;;;;;;5073267;28;20554;-65
2024/01/17 03:14:52;;;;;;;21.08;15.80;;;-1.50;99.90;;;;;;5080800;28;20492;-66
2024/01/17 03:17:17;;;;;;;19.30;14.80;;;-1.50;99.90;;;;;;5079121;28;20882;-65
2024/01/17 03:19:44;;;;;;;19.15;14.57;;;-1.50;99.90;;;;;;5073232;28;20416;-65
2024/01/17 03:22:10;;;;;;;17.20;14.30;;;-1.50;99.90;;;;;;5072537;28;20417;-65
2024/01/17 03:24:39;;;;;;;20.20;15.05;;;-1.50;99.90;;;;;;5082770;28;20414;-65
2024/01/17 03:27:05;;;;;;;18.77;14.07;;;-1.50;99.90;;;;;;5060680;28;20403;-66
2024/01/17 03:29:31;;;;;;;17.70;14.85;;;-1.50;99.90;;;;;;5088368;28;20489;-65
2024/01/17 03:31:56;;;;;;;18.38;13.82;;;-1.50;99.90;;;;;;5078700;28;20820;-65
2024/01/17 03:34:22;;;;;;;17.45;13.70;;;-1.50;99.90;;;;;;5077974;28;20398;-66
2024/01/17 03:36:48;;;;;;;19.23;14.40;;;-1.50;99.90;;;;;;5079223;28;20974;-65
2024/01/17 03:39:14;;;;;;;16.70;13.45;;;-1.50;99.90;;;;;;5081154;28;20440;-66
2024/01/17 03:41:40;;;;;;;18.50;13.93;;;-1.50;99.90;;;;;;5066169;28;20455;-66
2024/01/17 03:44:06;;;;;;;17.33;14.00;;;-1.50;99.90;;;;;;5077918;28;20415;-66
2024/01/17 03:46:32;;;;;;;16.88;13.65;;;-1.50;99.90;;;;;;5061340;28;20402;-65
2024/01/17 03:48:57;;;;;;;17.55;13.65;;;-1.60;99.90;;;;;;5050890;28;20447;-66
2024/01/17 03:51:23;;;;;;;17.20;13.52;;;-1.50;99.90;;;;;;5076082;28;20445;-66
2024/01/17 03:53:49;;;;;;;16.38;13.07;;;-1.50;99.90;;;;;;5079815;28;20421;-66
2024/01/17 03:56:15;;;;;;;15.40;13.40;;;-1.50;99.90;;;;;;5084334;28;20489;-65
2024/01/17 03:58:41;;;;;;;17.02;13.00;;;-1.50;99.90;;;;;;5078506;28;20396;-66
2024/01/17 04:01:11;;;;;;;17.55;13.15;;;-1.50;99.90;;;;;;5078658;28;20418;-65
2024/01/17 04:03:37;;;;;;;17.98;13.35;;;-1.40;99.90;;;;;;5079561;28;20763;-65
2024/01/17 04:06:03;;;;;;;15.65;13.18;;;-1.50;99.90;;;;;;5078928;28;20399;-66
2024/01/17 04:08:29;;;;;;;16.23;13.23;;;-1.50;99.90;;;;;;5078470;28;20482;-65
2024/01/17 04:10:55;;;;;;;16.38;12.82;;;-1.40;99.90;;;;;;5079400;28;20415;-65
2024/01/17 04:13:21;;;;;;;15.63;12.95;;;-1.50;99.90;;;;;;5084853;28;20751;-65
2024/01/17 04:15:47;;;;;;;16.63;12.55;;;-1.50;99.90;;;;;;5078613;28;20400;-65
2024/01/17 04:18:13;;;;;;;16.35;12.95;;;-1.60;99.90;;;;;;5085261;28;20502;-65
2024/01/17 04:20:39;;;;;;;15.63;12.70;;;-1.60;99.90;;;;;;5044700;28;20968;-65
2024/01/17 04:23:05;;;;;;;17.67;13.87;;;-1.60;99.90;;;;;;5086277;28;20464;-65
2024/01/17 04:25:30;;;;;;;19.23;14.25;;;-1.70;99.90;;;;;;5082890;28;20402;-65
2024/01/17 04:27:56;;;;;;;18.48;13.35;;;-1.70;99.90;;;;;;5079912;28;20404;-65
2024/01/17 04:30:22;;;;;;;19.48;13.50;;;-1.70;99.90;;;;;;5074540;28;20413;-66
2024/01/17 04:32:48;;;;;;;16.45;13.10;;;-1.70;99.90;;;;;;5087008;28;20798;-65
2024/01/17 04:35:18;;;;;;;18.00;13.15;;;-1.60;99.90;;;;;;5077410;28;20400;-66
2024/01/17 04:37:44;;;;;;;16.90;13.30;;;-1.70;99.90;;;;;;5056594;28;20451;-65
2024/01/17 04:40:11;;;;;;;18.63;13.43;;;-1.70;99.90;;;;;;5078393;28;20428;-65
2024/01/17 04:42:37;;;;;;;22.00;13.55;;;-1.70;99.90;;;;;;5077550;28;20558;-65
2024/01/17 04:45:04;;;;;;;17.75;13.40;;;-1.70;99.90;;;;;;5074831;28;20475;-65
2024/01/17 04:47:31;;;;;;;16.63;13.15;;;-1.70;99.90;;;;;;5079268;28;20878;-65
2024/01/17 04:49:57;;;;;;;18.80;13.37;;;-1.70;99.90;;;;;;5076925;28;20406;-65
2024/01/17 04:52:23;;;;;;;17.75;13.18;;;-1.70;99.90;;;;;;5081376;28;20437;-65
2024/01/17 04:54:49;;;;;;;17.92;13.50;;;-1.70;99.90;;;;;;5081289;28;20398;-66
2024/01/17 04:57:15;;;;;;;20.65;14.25;;;-1.60;99.90;;;;;;5074510;28;20473;-65
2024/01/17 04:59:42;;;;;;;19.58;13.20;;;-1.70;99.90;;;;;;5066551;28;20506;-65
2024/01/17 05:02:08;;;;;;;16.65;12.88;;;-1.60;99.90;;;;;;5081998;28;20389;-65
2024/01/17 05:04:34;;;;;;;17.52;12.73;;;-1.60;99.90;;;;;;5077905;28;20416;-66
2024/01/17 05:07:00;;;;;;;17.98;13.55;;;-1.60;99.90;;;;;;5079983;28;20401;-65
2024/01/17 05:09:26;;;;;;;15.25;12.35;;;-1.50;99.90;;;;;;5071767;28;20500;-65
2024/01/17 05:11:52;;;;;;;15.88;12.90;;;-1.50;99.90;;;;;;5077979;28;20471;-65
2024/01/17 05:14:18;;;;;;;14.77;12.00;;;-1.60;99.90;;;;;;5058572;28;21003;-65
2024/01/17 05:16:43;;;;;;;16.48;12.63;;;-1.60;99.90;;;;;;5073792;28;20472;-65
2024/01/17 05:19:09;;;;;;;15.80;12.60;;;-1.60;99.90;;;;;;5075113;28;20403;-65
2024/01/17 05:21:35;;;;;;;17.92;12.98;;;-1.60;99.90;;;;;;5082397;28;20399;-65
2024/01/17 05:24:00;;;;;;;15.77;12.43;;;-1.60;99.90;;;;;;5080787;28;20916;-65
2024/01/17 05:26:26;;;;;;;18.23;12.23;;;-1.60;99.90;;;;;;5080104;28;20406;-65
2024/01/17 05:28:56;;;;;;;19.07;13.30;;;-1.70;99.90;;;;;;5076230;28;20403;-65
2024/01/17 05:31:22;;;;;;;14.93;12.65;;;-1.70;99.90;;;;;;5073922;28;20908;-65
2024/01/17 05:33:47;;;;;;;16.97;12.50;;;-1.70;99.90;;;;;;5076770;28;20406;-65
2024/01/17 05:36:14;;;;;;;17.85;13.02;;;-1.70;99.90;;;;;;5074945;28;20415;-65
2024/01/17 05:38:40;;;;;;;15.95;13.20;;;-1.70;99.90;;;;;;5072736;28;20761;-65
2024/01/17 05:41:06;;;;;;;15.43;12.65;;;-1.70;99.90;;;;;;5074652;28;20407;-65
2024/01/17 05:43:32;;;;;;;16.83;13.05;;;-1.80;99.90;;;;;;5071683;28;20869;-65
2024/01/17 05:45:57;;;;;;;17.15;13.32;;;-1.80;99.90;;;;;;5081138;28;20720;-66
2024/01/17 05:48:24;;;;;;;17.90;12.73;;;-1.80;99.90;;;;;;5069369;28;20434;-65
2024/01/17 05:50:50;;;;;;;15.75;13.07;;;-1.80;99.90;;;;;;5080292;28;20825;-65
2024/01/17 05:53:16;;;;;;;16.58;13.27;;;-1.90;99.90;;;;;;5073315;28;20516;-65
2024/01/17 05:55:42;;;;;;;18.73;13.83;;;-1.90;99.90;;;;;;5064768;28;20423;-65
2024/01/17 05:58:09;;;;;;;18.67;13.68;;;-1.90;99.90;;;;;;5069579;28;20488;-65
2024/01/17 06:00:35;;;;;;;15.20;13.25;;;-2.00;99.90;;;;;;5061873;28;20423;-65
2024/01/17 06:03:01;;;;;;;17.45;13.23;;;-2.00;99.90;;;;;;5068803;28;20527;-65
2024/01/17 06:05:26;;;;;;;16.67;13.33;;;-2.00;99.90;;;;;;5072265;28;20481;-65
2024/01/17 06:07:52;;;;;;;15.77;14.07;;;-2.00;99.90;;;;;;5073862;28;20394;-65
2024/01/17 06:10:18;;;;;;;19.55;13.90;;;-2.10;99.90;;;;;;5078572;28;20418;-65
2024/01/17 06:12:45;;;;;;;17.58;13.82;;;-2.20;99.90;;;;;;5080321;28;20393;-65
2024/01/17 06:15:17;;;;;;;17.02;13.98;;;-2.20;99.90;;;;;;5076758;28;20417;-65
2024/01/17 06:17:46;;;;;;;16.60;13.40;;;-2.20;99.90;;;;;;5076571;28;20403;-65
2024/01/17 06:20:12;;;;;;;17.25;14.05;;;-2.20;99.90;;;;;;5073620;28;20927;-65
2024/01/17 06:22:38;;;;;;;19.50;13.50;;;-2.20;99.90;;;;;;5083746;28;20453;-65
2024/01/17 06:25:06;;;;;;;17.20;14.00;;;-2.20;99.90;;;;;;5077355;28;20398;-65
2024/01/17 06:27:32;;;;;;;17.45;13.40;;;-2.20;99.90;;;;;;5078608;28;21067;-65
2024/01/17 06:29:58;;;;;;;15.50;13.20;;;-2.20;99.90;;;;;;5081672;28;20419;-66
2024/01/17 06:32:23;;;;;;;17.48;13.82;;;-2.20;99.90;;;;;;5077432;28;20394;-65
2024/01/17 06:34:49;;;;;;;18.48;14.00;;;-2.30;99.90;;;;;;5076760;28;20460;-65
2024/01/17 06:37:15;;;;;;;19.67;14.55;;;-2.20;99.90;;;;;;5082337;28;20482;-65
2024/01/17 06:39:41;;;;;;;19.50;13.65;;;-2.20;99.90;;;;;;5074341;28;20401;-65
2024/01/17 06:42:07;;;;;;;15.90;13.38;;;-2.40;99.90;;;;;;5076968;28;20403;-65
2024/01/17 06:44:32;;;;;;;16.70;13.95;;;-2.40;99.90;;;;;;5075631;28;20736;-65
2024/01/17 06:46:58;;;;;;;17.23;13.90;;;-2.40;99.90;;;;;;5079642;28;20388;-65
2024/01/17 06:49:25;;;;;;;16.80;13.75;;;-2.30;99.90;;;;;;5075635;28;20411;-65
2024/01/17 06:51:51;;;;;;;18.88;13.35;;;-2.30;99.90;;;;;;5076593;28;20399;-65
2024/01/17 06:54:17;;;;;;;16.52;12.68;;;-2.30;99.90;;;;;;5060734;28;20516;-65
2024/01/17 06:56:42;;;;;;;20.55;14.13;;;-2.40;99.90;;;;;;5075541;28;20418;-65
2024/01/17 06:59:08;;;;;;;15.93;13.32;;;-2.50;99.90;;;;;;5081325;28;20417;-65
2024/01/17 07:01:35;;;;;;;17.73;14.20;;;-2.50;99.90;;;;;;5075952;28;20404;-66
2024/01/17 07:04:02;;;;;;;16.42;13.48;;;-2.50;99.90;;;;;;5074675;28;20419;-65
2024/01/17 07:06:28;;;;;;;17.08;13.55;;;-2.50;99.90;;;;;;5069442;28;20983;-65
2024/01/17 07:08:54;;;;;;;14.70;12.70;;;-2.40;99.90;;;;;;5069023;28;20498;-65
2024/01/17 07:11:19;;;;;;;16.73;13.32;;;-2.40;99.90;;;;;;5071639;28;20395;-65
2024/01/17 07:13:45;;;;;;;15.68;13.00;;;-2.40;99.90;;;;;;5077695;28;20413;-65
2024/01/17 07:16:17;;;;;;;16.02;12.35;;;-2.50;99.90;;;;;;5076971;28;20824;-65
2024/01/17 07:18:43;;;;;;;19.23;13.55;;;-2.50;99.90;;;;;;5076554;28;20912;-65
2024/01/17 07:21:08;;;;;;;17.93;13.33;;;-2.50;99.90;;;;;;5071945;28;20460;-65
2024/01/17 07:23:34;;;;;;;17.90;13.00;;;-2.50;99.90;;;;;;5081817;28;20482;-65
2024/01/17 07:26:00;;;;;;;16.30;12.90;;;-2.60;99.90;;;;;;5074475;28;20897;-65
2024/01/17 07:28:26;;;;;;;18.30;13.53;;;-2.50;99.90;;;;;;5075263;28;20956;-65
2024/01/17 07:30:52;;;;;;;18.00;12.93;;;-2.60;99.90;;;;;;5059490;28;20777;-65
2024/01/17 07:33:17;;;;;;;15.50;13.15;;;-2.60;99.90;;;;;;5076040;28;20411;-65
2024/01/17 07:35:44;;;;;;;17.63;12.65;;;-2.50;99.90;;;;;;5076522;28;20435;-65
2024/01/17 07:38:10;;;;;;;20.38;13.38;;;-2.60;99.90;;;;;;5077684;28;20436;-65
2024/01/17 07:40:37;;;;;;;19.30;12.93;;;-2.60;99.90;;;;;;5082433;28;20403;-65
2024/01/17 07:43:03;;;;;;;16.92;12.85;;;-2.60;99.90;;;;;;5068027;28;20409;-65
2024/01/17 07:45:29;;;;;;;16.67;13.00;;;-2.50;99.90;;;;;;5054501;28;20907;-65
2024/01/17 07:47:55;;;;;;;19.77;13.67;;;-2.60;99.90;;;;;;5069721;28;20788;-65
2024/01/17 07:50:20;;;;;;;17.67;13.27;;;-2.60;99.90;;;;;;5070124;28;20400;-65
2024/01/17 07:52:46;;;;;;;16.13;13.03;;;-2.50;99.90;;;;;;5058771;28;20423;-64
2024/01/17 07:55:12;;;;;;;18.02;13.10;;;-2.50;99.90;;;;;;5052561;28;20465;-65
2024/01/17 07:57:38;;;;;;;17.55;13.27;;;-2.50;99.90;;;;;;5070349;28;20392;-65
2024/01/17 08:00:07;;;;;;;17.20;12.73;;;-2.50;99.90;;;;;;5069220;28;20443;-65
2024/01/17 08:02:32;;;;;;;16.70;12.32;;;-2.50;99.90;;;;;;5058920;28;20423;-65
2024/01/17 08:04:58;;;;;;;15.13;12.20;;;-2.40;99.90;;;;;;5069070;28;20412;-65
2024/01/17 08:07:25;;;;;;;15.27;12.52;;;-2.50;99.90;;;;;;5068949;28;20427;-65
2024/01/17 08:09:54;;;;;;;16.60;12.63;;;-2.60;99.90;;;;;;5065663;28;20403;-65
2024/01/17 08:12:20;;;;;;;18.25;13.10;;;-2.60;99.90;;;;;;5066818;28;20407;-65
2024/01/17 08:14:49;;;;;;;17.67;13.30;;;-2.60;99.90;;;;;;5052513;28;20403;-65
2024/01/17 08:17:14;;;;;;;16.52;13.05;;;-2.50;99.90;;;;;;5070088;28;20435;-65
2024/01/17 08:19:40;;;;;;;16.20;13.02;;;-2.40;99.90;;;;;;5061266;28;20506;-65
2024/01/17 08:22:06;;;;;;;16.85;13.13;;;-2.40;99.90;;;;;;5045182;28;20404;-65
2024/01/17 08:24:32;;;;;;;18.42;12.98;;;-2.40;99.90;;;;;;5069981;28;20897;-65
2024/01/17 08:26:58;;;;;;;16.17;13.07;;;-2.30;99.90;;;;;;5051783;28;20419;-65
2024/01/17 08:29:24;;;;;;;16.20;13.20;;;-2.30;99.90;;;;;;5067394;28;20423;-65
2024/01/17 08:31:50;;;;;;;16.92;13.13;;;-2.20;99.90;;;;;;5070046;28;20584;-65
2024/01/17 08:34:16;;;;;;;14.70;12.77;;;-2.30;99.90;;;;;;5052169;28;20416;-64
2024/01/17 08:36:42;;;;;;;17.42;13.70;;;-2.20;99.90;;;;;;5069519;28;20412;-65
2024/01/17 08:39:08;;;;;;;17.58;13.40;;;-2.20;99.90;;;;;;5061751;28;20412;-65
2024/01/17 08:41:35;;;;;;;15.05;12.95;;;-2.10;99.90;;;;;;5051742;28;20914;-65
2024/01/17 08:44:01;;;;;;;16.33;13.10;;;-2.10;99.90;;;;;;5069881;28;20420;-65
2024/01/17 08:46:27;;;;;;;18.02;13.30;;;-2.10;99.90;;;;;;5067308;28;20410;-65
2024/01/17 08:48:54;;;;;;;16.08;13.32;;;-2.10;99.90;;;;;;5068283;28;20415;-65
2024/01/17 08:51:21;;;;;;;16.25;12.55;;;-2.20;99.90;;;;;;5069443;28;20944;-65
2024/01/17 08:53:48;;;;;;;16.45;13.10;;;-2.10;99.90;;;;;;5069392;28;20600;-65
2024/01/17 08:56:15;;;;;;;15.80;13.00;;;-2.10;99.90;;;;;;5067800;28;20434;-65
2024/01/17 08:58:42;;;;;;;16.17;13.05;;;-2.10;99.90;;;;;;5059229;28;20417;-65
2024/01/17 09:01:08;;;;;;;16.77;12.67;;;-2.10;99.90;;;;;;5069225;28;20406;-65
2024/01/17 09:03:36;;;;;;;16.77;13.15;;;-2.00;99.90;;;;;;5034975;28;20415;-65
2024/01/17 09:06:02;;;;;;;16.10;12.70;;;-2.00;99.90;;;;;;5067838;28;20408;-65
2024/01/17 09:08:28;;;;;;;17.95;13.60;;;-2.00;99.90;;;;;;5050378;28;20422;-65
2024/01/17 09:10:54;;;;;;;16.23;13.23;;;-2.00;99.90;;;;;;5069369;28;20392;-65
2024/01/17 09:13:20;;;;;;;17.17;13.70;;;-2.00;99.90;;;;;;5034689;28;20457;-64
2024/01/17 09:15:46;;;;;;;16.25;12.05;;;-1.90;99.90;;;;;;5054908;28;20418;-65
2024/01/17 09:18:12;;;;;;;16.45;11.98;;;-1.90;99.90;;;;;;5067732;28;20404;-65
2024/01/17 09:20:38;;;;;;;14.27;11.43;;;-1.90;99.90;;;;;;5069220;28;20404;-65
2024/01/17 09:23:03;;;;;;;15.25;12.25;;;-1.90;99.90;;;;;;5067549;28;20426;-65
2024/01/17 09:25:30;;;;;;;15.18;12.05;;;-1.90;99.90;;;;;;5068184;28;20411;-65
2024/01/17 09:27:55;;;;;;;16.88;11.77;;;-1.90;99.90;;;;;;5068993;28;20418;-65
2024/01/17 09:30:21;;;;;;;16.60;12.23;;;-1.80;99.90;;;;;;5067859;28;20859;-65
2024/01/17 09:32:47;;;;;;;16.10;12.10;;;-1.60;99.90;;;;;;5067604;28;20765;-65
2024/01/17 09:35:16;;;;;;;15.03;11.83;;;-1.50;99.90;;;;;;5064480;28;20423;-64
2024/01/17 09:37:43;;;;;;;15.27;11.38;;;-1.40;99.90;;;;;;5068665;28;20407;-65
2024/01/17 09:40:10;;;;;;;15.90;11.88;;;-1.30;99.90;;;;;;5050897;28;20480;-65
2024/01/17 09:42:36;;;;;;;15.20;12.05;;;-1.30;99.90;;;;;;5067305;28;20937;-65
2024/01/17 09:45:02;;;;;;;15.55;12.38;;;-1.20;99.90;;;;;;5061139;28;20413;-65
2024/01/17 09:47:32;;;;;;;14.50;11.40;;;-1.20;99.90;;;;;;5066603;28;20848;-65
2024/01/17 09:49:57;;;;;;;14.50;11.43;;;-1.10;99.90;;;;;;5068760;28;20392;-65
2024/01/17 09:52:23;;;;;;;15.02;11.30;;;-1.30;99.90;;;;;;5068812;28;20957;-65
2024/01/17 09:54:51;;;;;;;14.70;11.05;;;-1.20;99.90;;;;;;5059581;28;20449;-65
2024/01/17 09:57:23;;;;;;;14.93;11.50;;;-1.20;99.90;;;;;;5067098;28;20403;-65
2024/01/17 10:00:06;;;;;;;16.03;11.30;;;-1.00;99.90;;;;;;5072949;28;20479;-65
2024/01/17 10:02:32;;;;;;;17.23;11.83;;;-0.90;99.90;;;;;;5071449;28;20407;-65
2024/01/17 10:05:00;;;;;;;15.80;11.40;;;-1.00;99.90;;;;;;5054030;28;20422;-65
2024/01/17 10:07:25;;;;;;;16.83;12.10;;;-0.90;99.90;;;;;;5064363;28;20476;-65
2024/01/17 10:09:51;;;;;;;14.37;11.80;;;-0.90;99.90;;;;;;5050151;28;20419;-64
2024/01/17 10:12:19;;;;;;;14.40;10.87;;;-0.70;99.90;;;;;;5071079;28;20388;-65
2024/01/17 10:14:46;;;;;;;13.48;11.07;;;-0.80;99.90;;;;;;5066331;28;20505;-65
2024/01/17 10:17:12;;;;;;;15.60;11.90;;;-0.90;99.90;;;;;;5099790;28;20484;-65
2024/01/17 10:19:37;;;;;;;13.70;11.17;;;-0.80;99.90;;;;;;5072533;28;20398;-65
2024/01/17 10:22:06;;;;;;;14.47;11.63;;;-0.70;99.90;;;;;;5037621;28;20488;-65
2024/01/17 10:24:32;;;;;;;13.15;10.65;;;-0.80;99.90;;;;;;5069445;28;20429;-65
2024/01/17 10:27:06;;;;;;;14.70;11.32;;;-0.80;99.90;;;;;;5070713;28;20438;-65
2024/01/17 10:29:32;;;;;;;13.70;10.77;;;-0.70;99.90;;;;;;5072358;28;20394;-65
2024/01/17 10:31:59;;;;;;;15.13;11.17;;;-0.70;99.90;;;;;;5072232;28;20396;-65
2024/01/17 10:34:29;;;;;;;15.43;10.80;;;-0.60;99.90;;;;;;5071511;28;20437;-65
2024/01/17 10:36:55;;;;;;;16.70;11.32;;;-0.60;99.90;;;;;;5054369;28;20810;-65
2024/01/17 10:39:21;;;;;;;17.38;11.70;;;-0.60;99.90;;;;;;5072332;28;20411;-65
2024/01/17 10:41:54;;;;;;;14.90;10.90;;;-0.60;99.90;;;;;;5054229;28;20436;-65
2024/01/17 10:44:25;;;;;;;14.35;11.15;;;-0.50;99.90;;;;;;5069372;28;20427;-65
2024/01/17 10:46:51;;;;;;;15.18;10.93;;;-0.60;99.90;;;;;;5070635;28;20750;-65
2024/01/17 10:49:17;;;;;;;15.32;10.30;;;-0.70;99.90;;;;;;5053917;28;20399;-65
2024/01/17 10:51:52;;;;;;;15.77;11.00;;;-0.60;99.90;;;;;;5072118;28;20400;-65
2024/01/17 10:54:21;;;;;;;15.23;11.07;;;-0.80;99.90;;;;;;5066506;28;20431;-65
2024/01/17 10:56:53;;;;;;;14.57;11.27;;;-0.60;99.90;;;;;;5071658;28;20421;-65
2024/01/17 10:59:20;;;;;;;16.70;10.93;;;-0.50;99.90;;;;;;5053618;28;20931;-65
2024/01/17 11:01:50;;;;;;;14.75;11.02;;;-0.40;99.90;;;;;;5071757;28;20398;-65
2024/01/17 11:04:46;;;;;;;13.53;10.27;;;-0.50;99.90;;;;;;5063280;28;20597;-66
2024/01/17 11:07:16;;;;;;;14.85;10.95;;;-0.50;99.90;;;;;;5076697;28;20413;-65
2024/01/17 11:09:45;;;;;;;13.82;10.60;;;-0.60;99.90;;;;;;5052865;28;20422;-65
2024/01/17 11:12:14;;;;;;;14.20;10.90;;;-0.50;99.90;;;;;;5071206;28;20396;-66
2024/01/17 11:14:42;;;;;;;16.10;11.05;;;-0.60;99.90;;;;;;5053383;28;20541;-66
2024/01/17 11:17:08;;;;;;;15.50;10.85;;;-0.40;99.90;;;;;;5047752;28;20419;-66
2024/01/17 11:19:36;;;;;;;16.58;11.55;;;-0.50;99.90;;;;;;5071578;28;20437;-66
2024/01/17 11:22:02;;;;;;;14.45;11.80;;;-0.50;99.90;;;;;;5071501;28;20419;-66
2024/01/17 11:24:55;;;;;;;14.93;11.65;;;-0.50;99.90;;;;;;5069750;28;20947;-65
2024/01/17 11:27:25;;;;;;;16.45;11.15;;;-0.30;99.90;;;;;;5063617;28;20426;-65
2024/01/17 11:29:59;;;;;;;14.98;12.02;;;-0.20;99.90;;;;;;5070998;28;20391;-66
2024/01/17 11:33:22;;;;;;;14.48;11.20;;;-0.30;99.90;;;;;;5071047;28;20403;-66
2024/01/17 11:35:50;;;;;;;14.43;11.30;;;0.00;99.90;;;;;;5027566;28;20419;-65
2024/01/17 11:38:25;;;;;;;17.58;11.48;;;0.00;99.90;;;;;;5011074;28;20423;-66
2024/01/17 11:40:54;;;;;;;14.55;11.13;;;-0.10;99.90;;;;;;5048403;28;20401;-66
2024/01/17 11:43:20;;;;;;;15.63;11.00;;;-0.20;99.90;;;;;;5050603;28;20441;-65
2024/01/17 11:45:50;;;;;;;14.33;10.97;;;-0.20;99.90;;;;;;5066357;28;20444;-66
2024/01/17 11:48:17;;;;;;;15.60;10.98;;;-0.20;99.90;;;;;;5070651;28;20469;-65
2024/01/17 11:50:42;;;;;;;15.85;11.32;;;-0.20;99.90;;;;;;5069480;28;20411;-65
2024/01/17 11:53:08;;;;;;;14.90;10.88;;;-0.10;99.90;;;;;;5071006;28;20749;-66
2024/01/17 11:55:48;;;;;;;15.18;11.55;;;0.00;99.90;;;;;;5069405;28;20498;-65
2024/01/17 11:58:15;;;;;;;18.23;11.65;;;0.10;99.90;;;;;;5069344;28;20414;-65
2024/01/17 12:00:41;;;;;;;17.35;11.95;;;0.10;99.90;;;;;;5065913;28;20449;-65
2024/01/17 12:03:07;;;;;;;17.52;12.15;;;0.10;99.90;;;;;;5069397;28;20504;-66
2024/01/17 12:05:36;;;;;;;14.07;11.25;;;0.20;99.90;;;;;;5068155;28;20534;-65
2024/01/17 12:08:05;;;;;;;17.48;11.88;;;0.20;99.90;;;;;;5069141;28;20406;-65
2024/01/17 12:10:31;;;;;;;15.35;12.00;;;0.30;99.90;;;;;;5068902;28;20415;-65
2024/01/17 12:12:58;;;;;;;16.05;11.93;;;0.30;99.90;;;;;;5070206;28;20404;-65
2024/01/17 12:15:24;;;;;;;15.45;11.57;;;0.30;99.90;;;;;;5052398;28;20421;-65
2024/01/17 12:17:50;;;;;;;16.45;12.00;;;0.30;99.90;;;;;;5056191;28;20402;-66
2024/01/17 12:20:17;;;;;;;14.87;12.20;;;0.40;99.90;;;;;;5068745;28;20412;-66
2024/01/17 12:22:52;;;;;;;14.63;11.35;;;0.40;99.90;;;;;;5068738;28;20465;-66
2024/01/17 12:25:18;;;;;;;15.53;11.80;;;0.30;99.90;;;;;;5069235;28;20438;-65
2024/01/17 12:27:53;;;;;;;14.48;11.52;;;0.30;99.90;;;;;;5068310;28;20884;-65